Time;durP1;ratioP1;P1;durP2;ratioP2;P2;SDS_P1;SDS_P2;PMS_P1;PMS_P2;Temp;Humidity;BMP_temperature;BMP_pressure;BME280_temperature;BME280_humidity;BME280_pressure;Samples;Min_cycle;Max_cycle;Signal;HPM_P1;HPM_P2
2022/08/21 00:01:43;;;;;;;4.28;3.92;;;18.20;66.40;;;;;;934980;152;27298;-76
2022/08/21 00:04:09;;;;;;;3.90;3.60;;;18.10;66.40;;;;;;934684;152;27397;-76
2022/08/21 00:06:36;;;;;;;4.17;3.87;;;18.10;66.50;;;;;;934752;149;27426;-76
2022/08/21 00:09:03;;;;;;;4.62;4.05;;;18.10;66.80;;;;;;944657;149;27296;-76
2022/08/21 00:11:29;;;;;;;4.17;3.80;;;18.00;67.00;;;;;;944693;149;27431;-76
2022/08/21 00:13:56;;;;;;;5.40;4.00;;;18.00;67.10;;;;;;945161;149;27218;-76
2022/08/21 00:16:22;;;;;;;5.30;4.42;;;18.00;67.20;;;;;;946015;150;27248;-76
2022/08/21 00:18:49;;;;;;;4.37;4.00;;;18.00;67.40;;;;;;945381;150;27224;-76
2022/08/21 00:21:15;;;;;;;4.62;4.17;;;17.90;67.60;;;;;;946919;147;27210;-76
2022/08/21 00:23:42;;;;;;;4.80;4.40;;;17.90;67.80;;;;;;945344;149;27250;-76
2022/08/21 00:26:09;;;;;;;5.10;4.60;;;17.90;67.80;;;;;;944796;149;27343;-76
2022/08/21 00:28:35;;;;;;;6.33;4.12;;;17.90;68.70;;;;;;945369;149;27192;-76
2022/08/21 00:31:03;;;;;;;4.37;4.07;;;17.90;67.90;;;;;;944229;149;27183;-76
2022/08/21 00:33:28;;;;;;;4.83;4.37;;;17.80;68.00;;;;;;946610;149;27264;-76
2022/08/21 00:35:55;;;;;;;4.65;4.25;;;17.80;68.10;;;;;;944915;149;27300;-76
2022/08/21 00:38:22;;;;;;;4.58;4.15;;;17.80;68.40;;;;;;944148;149;27367;-76
2022/08/21 00:40:51;;;;;;;4.45;4.12;;;17.80;68.50;;;;;;947226;149;27254;-76
2022/08/21 00:43:17;;;;;;;5.33;4.50;;;17.80;68.60;;;;;;944263;149;27221;-76
2022/08/21 00:45:44;;;;;;;4.80;4.22;;;17.70;68.60;;;;;;946354;150;27377;-76
2022/08/21 00:48:10;;;;;;;5.03;4.53;;;17.70;68.70;;;;;;944441;147;27807;-76
2022/08/21 00:50:37;;;;;;;6.47;5.23;;;17.70;68.80;;;;;;947433;150;27195;-76
2022/08/21 00:53:04;;;;;;;5.30;4.80;;;17.70;68.90;;;;;;945923;149;27823;-76
2022/08/21 00:55:30;;;;;;;6.53;4.50;;;17.70;69.10;;;;;;946382;149;27299;-76
2022/08/21 00:57:57;;;;;;;5.20;4.63;;;17.60;69.20;;;;;;948525;149;27327;-76
2022/08/21 01:00:29;;;;;;;7.80;4.60;;;17.60;69.40;;;;;;944581;149;27343;-76
2022/08/21 01:02:56;;;;;;;6.00;4.12;;;17.50;69.50;;;;;;945762;149;27222;-76
2022/08/21 01:05:22;;;;;;;4.97;4.23;;;17.50;69.60;;;;;;947473;149;27253;-76
2022/08/21 01:07:49;;;;;;;4.60;4.20;;;17.50;69.70;;;;;;945950;150;27209;-76
2022/08/21 01:10:15;;;;;;;4.22;3.90;;;17.40;69.90;;;;;;955997;146;27271;-76
2022/08/21 01:12:42;;;;;;;4.30;3.87;;;17.40;70.20;;;;;;957898;148;27271;-76
2022/08/21 01:15:09;;;;;;;5.03;4.53;;;17.40;70.20;;;;;;958196;148;27266;-76
2022/08/21 01:17:35;;;;;;;4.85;4.40;;;17.40;70.20;;;;;;955254;148;27259;-76
2022/08/21 01:20:02;;;;;;;5.28;4.05;;;17.30;70.20;;;;;;958443;148;27300;-76
2022/08/21 01:22:28;;;;;;;5.00;4.60;;;17.30;70.30;;;;;;955871;148;27212;-76
2022/08/21 01:24:55;;;;;;;5.28;4.15;;;17.30;70.40;;;;;;957462;148;27289;-76
2022/08/21 01:27:21;;;;;;;4.40;3.97;;;17.30;70.50;;;;;;955064;146;28009;-76
2022/08/21 01:29:56;;;;;;;5.03;4.53;;;17.20;70.70;;;;;;955443;148;27237;-76
2022/08/21 01:32:23;;;;;;;4.97;4.47;;;17.20;70.80;;;;;;956376;146;27320;-76
2022/08/21 01:34:50;;;;;;;4.50;3.97;;;17.20;70.70;;;;;;956513;147;27614;-76
2022/08/21 01:37:16;;;;;;;5.03;4.53;;;17.10;70.80;;;;;;957803;146;27272;-76
2022/08/21 01:39:43;;;;;;;4.33;4.03;;;17.10;71.10;;;;;;955739;146;27272;-76
2022/08/21 01:42:09;;;;;;;5.63;5.13;;;17.10;71.20;;;;;;958139;146;27195;-76
2022/08/21 01:44:36;;;;;;;4.77;4.37;;;17.10;71.40;;;;;;956672;148;27248;-76
2022/08/21 01:47:03;;;;;;;6.05;4.90;;;17.10;71.60;;;;;;956889;148;27223;-76
2022/08/21 01:49:29;;;;;;;5.05;4.50;;;17.00;71.60;;;;;;956162;148;27339;-76
2022/08/21 01:51:56;;;;;;;4.90;4.50;;;17.00;71.70;;;;;;957441;146;27209;-76
2022/08/21 01:54:22;;;;;;;7.37;4.77;;;17.00;72.00;;;;;;957259;146;27271;-76
2022/08/21 01:56:49;;;;;;;4.90;4.13;;;17.00;73.00;;;;;;955620;146;27245;-76
2022/08/21 01:59:16;;;;;;;4.97;4.47;;;17.00;72.40;;;;;;957589;148;27247;-76
2022/08/21 02:01:42;;;;;;;4.03;3.70;;;16.90;73.10;;;;;;957270;148;27290;-76
2022/08/21 02:04:09;;;;;;;5.20;4.03;;;16.90;72.40;;;;;;957144;148;27278;-76
2022/08/21 02:06:35;;;;;;;6.93;4.63;;;16.90;72.40;;;;;;956362;148;27240;-76
2022/08/21 02:09:02;;;;;;;4.10;3.80;;;16.90;72.50;;;;;;955745;146;27197;-76
2022/08/21 02:11:28;;;;;;;4.63;4.23;;;16.80;72.50;;;;;;953451;145;27321;-76
2022/08/21 02:13:55;;;;;;;4.70;4.30;;;16.80;72.70;;;;;;956633;146;27239;-76
2022/08/21 02:16:22;;;;;;;5.97;4.60;;;16.80;72.80;;;;;;957328;148;27295;-76
2022/08/21 02:18:48;;;;;;;5.43;4.33;;;16.70;73.10;;;;;;958018;148;27236;-76
2022/08/21 02:21:15;;;;;;;5.13;4.60;;;16.70;73.20;;;;;;956338;146;27222;-76
2022/08/21 02:23:41;;;;;;;4.53;4.13;;;16.60;73.30;;;;;;956760;145;27332;-76
2022/08/21 02:26:08;;;;;;;8.00;4.90;;;16.60;73.50;;;;;;955597;148;27217;-76
2022/08/21 02:28:35;;;;;;;5.00;4.50;;;16.60;73.50;;;;;;956135;146;27278;-76
2022/08/21 02:31:01;;;;;;;4.73;4.33;;;16.50;73.60;;;;;;956523;147;27712;-76
2022/08/21 02:33:28;;;;;;;5.33;4.75;;;16.50;73.80;;;;;;956204;148;27534;-76
2022/08/21 02:35:54;;;;;;;4.97;4.60;;;16.50;74.10;;;;;;957117;148;27228;-76
2022/08/21 02:38:21;;;;;;;4.53;4.03;;;16.40;74.20;;;;;;957131;148;27695;-76
2022/08/21 02:40:48;;;;;;;4.40;4.10;;;16.40;74.40;;;;;;956021;148;27308;-76
2022/08/21 02:43:14;;;;;;;5.70;4.47;;;16.40;74.50;;;;;;955843;146;27583;-76
2022/08/21 02:45:41;;;;;;;5.30;4.80;;;16.30;74.50;;;;;;954930;146;27348;-76
2022/08/21 02:48:07;;;;;;;6.90;4.40;;;16.30;74.60;;;;;;956298;148;27225;-76
2022/08/21 02:50:37;;;;;;;5.43;4.87;;;16.30;74.90;;;;;;955503;148;27236;-76
2022/08/21 02:53:03;;;;;;;5.10;4.70;;;16.20;75.00;;;;;;957161;146;27256;-76
2022/08/21 02:55:30;;;;;;;5.57;5.07;;;16.20;75.00;;;;;;958288;148;27278;-76
2022/08/21 02:57:56;;;;;;;5.53;4.77;;;16.20;75.20;;;;;;955228;147;27618;-76
2022/08/21 03:00:23;;;;;;;5.93;4.20;;;16.10;75.40;;;;;;955972;148;27274;-77
2022/08/21 03:02:49;;;;;;;4.87;4.47;;;16.10;75.50;;;;;;957000;146;27192;-78
2022/08/21 03:05:16;;;;;;;5.83;4.87;;;16.10;75.60;;;;;;956435;146;27368;-77
2022/08/21 03:07:43;;;;;;;4.93;4.50;;;16.10;75.80;;;;;;958604;148;27286;-77
2022/08/21 03:10:09;;;;;;;5.53;4.90;;;16.00;76.00;;;;;;955940;148;27239;-77
2022/08/21 03:12:36;;;;;;;4.90;4.50;;;16.00;76.20;;;;;;956903;146;27215;-77
2022/08/21 03:15:02;;;;;;;7.17;4.97;;;16.00;77.00;;;;;;957448;148;27313;-78
2022/08/21 03:17:29;;;;;;;6.40;4.77;;;16.00;76.50;;;;;;960892;146;27259;-78
2022/08/21 03:19:56;;;;;;;5.20;4.70;;;15.90;76.60;;;;;;957648;146;27380;-78
2022/08/21 03:22:22;;;;;;;5.30;4.80;;;15.90;76.80;;;;;;957039;146;27308;-78
2022/08/21 03:24:49;;;;;;;5.50;5.10;;;15.90;77.00;;;;;;957796;148;27314;-78
2022/08/21 03:27:15;;;;;;;5.50;4.90;;;15.80;77.10;;;;;;957079;146;27208;-78
2022/08/21 03:29:42;;;;;;;5.37;4.40;;;15.80;77.30;;;;;;954211;145;27368;-78
2022/08/21 03:32:09;;;;;;;5.07;4.57;;;15.80;77.50;;;;;;956519;148;27267;-78
2022/08/21 03:34:35;;;;;;;5.00;4.60;;;15.80;77.60;;;;;;957802;148;28404;-78
2022/08/21 03:37:02;;;;;;;5.13;4.43;;;15.70;77.60;;;;;;957610;146;27197;-78
2022/08/21 03:39:29;;;;;;;5.00;4.60;;;15.70;77.80;;;;;;957392;148;27267;-77
2022/08/21 03:41:55;;;;;;;5.20;4.70;;;15.70;77.90;;;;;;956852;146;27332;-77
2022/08/21 03:44:21;;;;;;;4.77;4.37;;;15.70;78.00;;;;;;956714;145;27290;-78
2022/08/21 03:46:48;;;;;;;5.17;4.67;;;15.70;78.20;;;;;;956552;146;27278;-77
2022/08/21 03:49:15;;;;;;;4.97;4.50;;;15.60;78.50;;;;;;955888;148;27220;-77
2022/08/21 03:51:42;;;;;;;5.73;5.07;;;15.60;78.70;;;;;;957302;146;27291;-77
2022/08/21 03:54:08;;;;;;;5.60;5.03;;;15.60;78.90;;;;;;958162;148;27252;-77
2022/08/21 03:56:34;;;;;;;5.57;5.03;;;15.60;79.20;;;;;;956566;148;27374;-77
2022/08/21 03:59:02;;;;;;;5.40;4.73;;;15.60;79.50;;;;;;958035;148;27268;-77
2022/08/21 04:01:28;;;;;;;5.17;4.40;;;15.60;79.60;;;;;;955770;148;27267;-78
2022/08/21 04:03:54;;;;;;;4.57;4.13;;;15.60;79.70;;;;;;955632;148;27219;-78
2022/08/21 04:06:21;;;;;;;5.73;4.70;;;15.60;79.60;;;;;;955603;148;27317;-78
2022/08/21 04:08:47;;;;;;;5.13;4.73;;;15.60;79.80;;;;;;957448;146;28075;-77
2022/08/21 04:11:14;;;;;;;6.07;4.80;;;15.60;80.00;;;;;;950434;148;27309;-77
2022/08/21 04:13:40;;;;;;;5.60;4.90;;;15.60;80.10;;;;;;946820;150;27369;-77
2022/08/21 04:16:07;;;;;;;7.10;5.47;;;15.60;80.20;;;;;;945728;149;27199;-77
2022/08/21 04:18:34;;;;;;;5.37;4.87;;;15.60;80.40;;;;;;947043;149;27249;-78
2022/08/21 04:21:00;;;;;;;5.17;4.77;;;15.50;80.60;;;;;;946487;147;27258;-78
2022/08/21 04:23:27;;;;;;;5.80;5.30;;;15.60;80.90;;;;;;946002;149;27278;-77
2022/08/21 04:25:53;;;;;;;5.03;4.53;;;15.50;81.10;;;;;;944848;149;27276;-77
2022/08/21 04:28:20;;;;;;;6.13;4.93;;;15.50;81.10;;;;;;944537;146;27210;-77
2022/08/21 04:30:47;;;;;;;5.07;4.40;;;15.50;81.20;;;;;;944383;150;27249;-77
2022/08/21 04:33:13;;;;;;;8.27;5.20;;;15.50;81.30;;;;;;944115;149;27216;-77
2022/08/21 04:35:41;;;;;;;5.33;4.93;;;15.50;81.50;;;;;;947399;149;27258;-77
2022/08/21 04:38:06;;;;;;;5.67;5.03;;;15.50;81.70;;;;;;944036;149;27360;-77
2022/08/21 04:40:33;;;;;;;5.57;5.07;;;15.60;82.10;;;;;;944642;149;27414;-77
2022/08/21 04:43:02;;;;;;;5.43;4.93;;;15.60;82.30;;;;;;945465;149;27306;-77
2022/08/21 04:45:31;;;;;;;6.20;5.27;;;15.60;82.50;;;;;;943954;149;27344;-77
2022/08/21 04:47:58;;;;;;;5.97;5.43;;;15.60;82.60;;;;;;945625;150;27253;-77
2022/08/21 04:50:25;;;;;;;5.50;4.97;;;15.60;82.90;;;;;;944999;149;27242;-78
2022/08/21 04:52:51;;;;;;;5.77;4.70;;;15.60;83.00;;;;;;944228;149;27248;-78
2022/08/21 04:55:18;;;;;;;5.87;5.33;;;15.60;83.40;;;;;;942997;149;27324;-78
2022/08/21 04:57:44;;;;;;;5.73;4.93;;;15.70;83.70;;;;;;945116;149;27170;-78
2022/08/21 05:00:12;;;;;;;5.67;5.00;;;15.80;84.20;;;;;;946835;149;27288;-78
2022/08/21 05:02:38;;;;;;;5.33;4.83;;;15.80;84.80;;;;;;945049;147;27284;-78
2022/08/21 05:05:05;;;;;;;5.80;5.20;;;16.00;85.80;;;;;;947095;149;27167;-78
2022/08/21 05:07:31;;;;;;;5.78;5.17;;;16.20;86.80;;;;;;946051;149;27445;-78
2022/08/21 05:09:57;;;;;;;5.53;5.12;;;16.40;87.50;;;;;;945616;149;27383;-78
2022/08/21 05:12:24;;;;;;;5.67;4.70;;;16.70;88.20;;;;;;943090;149;27351;-78
2022/08/21 05:14:51;;;;;;;4.92;4.53;;;17.00;88.60;;;;;;945401;150;27280;-78
2022/08/21 05:17:17;;;;;;;5.55;4.90;;;17.30;88.50;;;;;;948169;149;27981;-78
2022/08/21 05:19:44;;;;;;;5.65;5.05;;;17.70;88.50;;;;;;944999;149;27322;-78
2022/08/21 05:22:10;;;;;;;6.12;5.62;;;18.10;88.20;;;;;;945153;150;27216;-78
2022/08/21 05:24:37;;;;;;;5.40;4.90;;;18.50;87.80;;;;;;945801;149;27304;-78
2022/08/21 05:27:04;;;;;;;5.22;4.60;;;18.90;87.00;;;;;;943765;150;27377;-78
2022/08/21 05:29:31;;;;;;;5.10;4.55;;;19.40;86.20;;;;;;946861;148;27265;-78
2022/08/21 05:31:57;;;;;;;5.03;4.53;;;19.80;85.10;;;;;;944140;150;27237;-78
2022/08/21 05:34:23;;;;;;;4.45;4.15;;;20.30;83.90;;;;;;944383;149;27551;-78
2022/08/21 05:36:50;;;;;;;4.70;4.30;;;20.70;82.60;;;;;;946387;149;27225;-78
2022/08/21 05:39:17;;;;;;;4.35;3.90;;;21.20;81.40;;;;;;946047;149;27435;-78
2022/08/21 05:41:43;;;;;;;4.35;4.00;;;21.70;80.10;;;;;;945317;150;27374;-78
2022/08/21 05:44:10;;;;;;;4.33;3.92;;;22.10;78.70;;;;;;946257;149;27419;-78
2022/08/21 05:46:36;;;;;;;4.58;4.17;;;22.60;77.50;;;;;;946216;146;28004;-78
2022/08/21 05:49:03;;;;;;;4.42;4.05;;;23.10;76.00;;;;;;946335;147;27281;-78
2022/08/21 05:51:29;;;;;;;4.20;3.80;;;23.60;74.80;;;;;;947068;149;27336;-78
2022/08/21 05:53:56;;;;;;;4.28;3.98;;;24.00;73.30;;;;;;945069;149;27263;-78
2022/08/21 05:56:23;;;;;;;4.47;4.17;;;24.50;72.10;;;;;;944228;149;27229;-78
2022/08/21 05:58:49;;;;;;;4.35;3.65;;;25.00;70.90;;;;;;945193;149;27308;-78
2022/08/21 06:01:16;;;;;;;4.47;4.08;;;25.50;70.00;;;;;;946231;148;27207;-78
2022/08/21 06:03:42;;;;;;;4.17;3.87;;;26.00;68.60;;;;;;944052;150;27365;-78
2022/08/21 06:06:09;;;;;;;4.33;4.03;;;26.40;67.50;;;;;;946508;149;27281;-78
2022/08/21 06:08:36;;;;;;;4.10;3.80;;;27.00;66.40;;;;;;945520;150;27258;-79
2022/08/21 06:11:02;;;;;;;4.22;3.83;;;27.50;65.40;;;;;;946026;150;27294;-79
2022/08/21 06:13:29;;;;;;;4.30;4.00;;;28.00;64.40;;;;;;939730;149;27379;-79
2022/08/21 06:16:01;;;;;;;4.40;3.70;;;28.50;63.20;;;;;;932726;149;27331;-79
2022/08/21 06:18:28;;;;;;;4.08;3.67;;;29.00;61.90;;;;;;934223;152;27365;-78
2022/08/21 06:20:54;;;;;;;4.37;4.00;;;29.50;60.60;;;;;;935092;152;27276;-78
2022/08/21 06:23:21;;;;;;;4.30;4.00;;;30.00;59.70;;;;;;934907;152;27437;-78
2022/08/21 06:25:48;;;;;;;4.12;3.83;;;30.40;59.00;;;;;;935551;149;27717;-78
2022/08/21 06:28:14;;;;;;;4.45;4.05;;;30.80;58.30;;;;;;936241;149;27428;-78
2022/08/21 06:30:41;;;;;;;4.15;3.85;;;31.30;57.50;;;;;;935434;152;27372;-78
2022/08/21 06:33:07;;;;;;;4.45;3.92;;;31.80;56.80;;;;;;934516;152;27438;-78
2022/08/21 06:35:34;;;;;;;4.33;3.90;;;32.20;56.30;;;;;;934766;149;27323;-78
2022/08/21 06:38:00;;;;;;;4.00;3.67;;;32.70;55.50;;;;;;933617;152;27333;-78
2022/08/21 06:40:27;;;;;;;6.42;3.83;;;33.20;54.70;;;;;;934074;152;27819;-78
2022/08/21 06:42:54;;;;;;;3.92;3.62;;;33.60;54.20;;;;;;934782;151;27836;-78
2022/08/21 06:45:20;;;;;;;3.77;3.35;;;34.10;53.50;;;;;;935401;152;28516;-78
2022/08/21 06:47:47;;;;;;;3.52;3.30;;;34.50;52.80;;;;;;933525;152;27786;-78
2022/08/21 06:50:13;;;;;;;3.52;3.25;;;34.90;52.00;;;;;;935078;151;27269;-78
2022/08/21 06:52:40;;;;;;;5.70;3.33;;;35.40;51.40;;;;;;934487;151;26228;-78
2022/08/21 06:55:07;;;;;;;3.80;3.50;;;35.90;50.60;;;;;;935603;152;27942;-78
2022/08/21 06:57:33;;;;;;;4.00;3.62;;;36.30;49.90;;;;;;935877;149;27340;-78
2022/08/21 07:00:00;;;;;;;4.17;3.80;;;36.70;49.10;;;;;;936031;151;26201;-78
2022/08/21 07:02:26;;;;;;;4.15;3.75;;;37.20;48.60;;;;;;937326;151;26248;-78
2022/08/21 07:04:53;;;;;;;4.17;3.45;;;37.50;47.60;;;;;;934933;152;26304;-78
2022/08/21 07:07:20;;;;;;;4.83;3.37;;;37.90;47.00;;;;;;937352;151;26248;-78
2022/08/21 07:09:46;;;;;;;3.90;3.47;;;38.30;46.30;;;;;;934199;151;26362;-79
2022/08/21 07:12:13;;;;;;;3.65;3.30;;;38.70;45.70;;;;;;934812;152;26276;-79
2022/08/21 07:14:39;;;;;;;3.50;3.20;;;39.00;45.00;;;;;;934990;147;27379;-79
2022/08/21 07:17:06;;;;;;;4.53;3.27;;;39.40;44.40;;;;;;935292;152;26172;-79
2022/08/21 07:19:32;;;;;;;3.20;3.00;;;39.70;43.90;;;;;;937048;152;26243;-79
2022/08/21 07:21:59;;;;;;;3.83;3.40;;;40.10;43.50;;;;;;935069;152;26376;-79
2022/08/21 07:24:26;;;;;;;3.87;3.47;;;40.40;42.70;;;;;;934456;152;26258;-79
2022/08/21 07:26:52;;;;;;;3.50;3.20;;;40.80;42.00;;;;;;933608;152;26187;-79
2022/08/21 07:29:19;;;;;;;4.72;3.72;;;41.10;41.50;;;;;;937428;151;26661;-79
2022/08/21 07:31:45;;;;;;;4.03;3.67;;;41.40;41.00;;;;;;937152;152;26231;-79
2022/08/21 07:34:12;;;;;;;3.62;3.15;;;41.70;40.60;;;;;;935090;151;26273;-79
2022/08/21 07:36:39;;;;;;;3.17;2.87;;;42.10;40.00;;;;;;935568;149;26261;-79
2022/08/21 07:39:05;;;;;;;3.87;3.47;;;42.50;39.80;;;;;;934817;149;26239;-79
2022/08/21 07:41:34;;;;;;;4.45;3.67;;;42.80;39.10;;;;;;935779;149;26303;-79
2022/08/21 07:43:58;;;;;;;4.08;2.77;;;43.10;38.40;;;;;;934746;152;26286;-79
2022/08/21 07:46:25;;;;;;;3.45;3.00;;;43.40;38.00;;;;;;937267;152;26251;-79
2022/08/21 07:48:52;;;;;;;3.02;2.77;;;43.60;37.30;;;;;;935422;151;26307;-80
2022/08/21 07:51:18;;;;;;;3.37;3.08;;;43.80;36.60;;;;;;934953;152;26231;-80
2022/08/21 07:53:47;;;;;;;4.05;3.25;;;44.00;36.10;;;;;;935798;152;26280;-79
2022/08/21 07:56:14;;;;;;;2.92;2.72;;;44.10;35.40;;;;;;935385;152;26259;-80
2022/08/21 07:58:41;;;;;;;7.58;3.15;;;44.20;35.30;;;;;;935174;152;26286;-79
2022/08/21 08:01:07;;;;;;;3.08;2.62;;;44.30;34.80;;;;;;936203;149;26231;-79
2022/08/21 08:03:34;;;;;;;3.47;3.17;;;44.30;34.70;;;;;;934683;152;26593;-80
2022/08/21 08:06:00;;;;;;;4.50;3.33;;;44.30;34.30;;;;;;936708;152;26223;-80
2022/08/21 08:08:27;;;;;;;2.95;2.75;;;44.40;34.00;;;;;;934634;152;26326;-80
2022/08/21 08:10:54;;;;;;;3.72;3.02;;;44.50;34.00;;;;;;937011;152;26263;-80
2022/08/21 08:13:20;;;;;;;3.67;2.75;;;44.70;33.80;;;;;;936175;151;26254;-80
2022/08/21 08:15:47;;;;;;;3.12;2.83;;;44.90;33.50;;;;;;948515;149;26154;-80
2022/08/21 08:18:13;;;;;;;3.83;2.98;;;45.10;33.30;;;;;;944647;149;26223;-80
2022/08/21 08:20:40;;;;;;;3.40;2.65;;;45.30;33.00;;;;;;945008;150;26125;-80
2022/08/21 08:23:06;;;;;;;5.42;2.98;;;45.50;32.60;;;;;;947115;148;26262;-80
2022/08/21 08:25:33;;;;;;;3.22;2.95;;;45.70;31.50;;;;;;946597;149;26746;-80
2022/08/21 08:28:00;;;;;;;3.35;3.00;;;45.90;31.90;;;;;;946864;149;26176;-80
2022/08/21 08:30:26;;;;;;;3.17;2.72;;;46.10;31.50;;;;;;945777;149;26151;-80
2022/08/21 08:32:53;;;;;;;3.87;3.05;;;46.20;31.40;;;;;;943759;149;26177;-80
2022/08/21 08:35:19;;;;;;;4.08;2.58;;;46.40;31.00;;;;;;945463;149;26296;-80
2022/08/21 08:37:46;;;;;;;3.10;2.70;;;46.60;30.90;;;;;;945446;150;26598;-80
2022/08/21 08:40:19;;;;;;;3.62;2.92;;;46.80;30.60;;;;;;947307;149;26324;-80
2022/08/21 08:42:47;;;;;;;3.02;2.58;;;46.90;30.10;;;;;;944838;149;26254;-80
2022/08/21 08:45:12;;;;;;;2.95;2.60;;;47.10;30.10;;;;;;945450;149;26153;-80
2022/08/21 08:47:38;;;;;;;2.90;2.60;;;47.30;29.80;;;;;;945193;149;27017;-80
2022/08/21 08:50:08;;;;;;;3.80;2.80;;;47.40;29.50;;;;;;945608;149;26169;-80
2022/08/21 08:52:37;;;;;;;4.03;2.65;;;47.40;29.20;;;;;;947191;147;26091;-80
2022/08/21 08:55:09;;;;;;;4.62;2.80;;;47.50;29.20;;;;;;945876;149;26166;-80
2022/08/21 08:57:36;;;;;;;3.05;2.60;;;47.60;29.10;;;;;;947097;149;26275;-80
2022/08/21 09:00:02;;;;;;;3.50;3.12;;;47.70;29.00;;;;;;946623;150;26191;-80
2022/08/21 09:02:29;;;;;;;3.92;2.58;;;47.70;28.60;;;;;;945030;147;26241;-80
2022/08/21 09:04:56;;;;;;;2.60;2.40;;;47.80;28.60;;;;;;945748;149;26142;-80
2022/08/21 09:07:28;;;;;;;3.58;2.37;;;47.90;28.50;;;;;;946856;149;26175;-80
2022/08/21 09:10:19;;;;;;;3.33;2.20;;;48.00;28.30;;;;;;946454;149;26222;-80
2022/08/21 09:13:06;;;;;;;3.05;2.50;;;48.00;28.20;;;;;;946003;147;26199;-80
2022/08/21 09:15:45;;;;;;;2.58;2.35;;;48.10;28.00;;;;;;940549;147;26309;-80
2022/08/21 09:18:27;;;;;;;2.65;2.15;;;48.10;27.90;;;;;;932165;152;26183;-80
2022/08/21 09:21:02;;;;;;;3.50;2.40;;;48.20;27.80;;;;;;935418;152;26254;-80
2022/08/21 09:23:46;;;;;;;2.87;2.45;;;48.20;27.70;;;;;;934088;152;26679;-80
2022/08/21 09:26:16;;;;;;;2.60;2.27;;;48.20;27.50;;;;;;937448;152;26360;-80
2022/08/21 09:28:42;;;;;;;2.05;1.90;;;48.20;27.50;;;;;;936247;152;26207;-80
2022/08/21 09:31:09;;;;;;;2.83;2.30;;;48.20;27.50;;;;;;936648;152;26235;-80
2022/08/21 09:33:35;;;;;;;3.10;2.67;;;48.10;27.40;;;;;;936785;149;26258;-80
2022/08/21 09:36:02;;;;;;;2.62;2.40;;;48.10;27.30;;;;;;936450;152;26278;-81
2022/08/21 09:38:28;;;;;;;3.02;2.60;;;48.10;27.00;;;;;;936121;149;26279;-81
2022/08/21 09:40:58;;;;;;;2.65;2.37;;;48.10;26.70;;;;;;935063;152;26309;-80
2022/08/21 09:43:27;;;;;;;4.95;2.70;;;48.00;26.10;;;;;;935396;151;26244;-81
2022/08/21 09:46:03;;;;;;;2.70;2.20;;;47.70;25.70;;;;;;935245;152;26353;-81
2022/08/21 09:48:30;;;;;;;3.05;2.52;;;47.30;25.90;;;;;;935711;152;26380;-81
2022/08/21 09:50:56;;;;;;;5.40;2.50;;;46.80;26.50;;;;;;935644;152;26287;-80
2022/08/21 09:53:26;;;;;;;3.10;2.50;;;46.30;26.10;;;;;;931951;152;26727;-80
2022/08/21 09:58:44;;;;;;;3.10;2.60;;;45.00;26.40;;;;;;934349;152;26239;-80
2022/08/21 10:01:10;;;;;;;3.87;2.42;;;44.20;26.70;;;;;;933888;152;26291;-80
2022/08/21 10:03:36;;;;;;;2.77;2.52;;;43.60;26.80;;;;;;935243;152;26352;-80
2022/08/21 10:06:05;;;;;;;2.60;2.40;;;43.10;27.10;;;;;;935501;152;26368;-80
2022/08/21 10:08:30;;;;;;;3.77;2.70;;;42.40;27.20;;;;;;933153;152;27376;-80
2022/08/21 10:10:56;;;;;;;3.67;2.75;;;42.00;27.50;;;;;;936707;152;26248;-80
2022/08/21 10:13:23;;;;;;;3.67;2.70;;;41.40;27.70;;;;;;936725;152;26259;-80
2022/08/21 10:16:01;;;;;;;3.60;2.52;;;41.00;27.80;;;;;;933453;150;26296;-80
2022/08/21 10:18:31;;;;;;;2.85;2.52;;;40.60;28.60;;;;;;943861;150;26339;-80
2022/08/21 10:21:12;;;;;;;3.92;2.50;;;40.10;28.30;;;;;;945457;150;26231;-80
2022/08/21 10:23:45;;;;;;;3.00;2.50;;;39.70;28.50;;;;;;933683;149;27242;-80
2022/08/21 10:26:11;;;;;;;3.10;2.25;;;39.40;28.50;;;;;;944302;146;26277;-80
2022/08/21 10:28:56;;;;;;;2.45;2.10;;;39.10;28.50;;;;;;944104;150;26249;-80
2022/08/21 10:31:47;;;;;;;3.70;2.52;;;38.80;28.60;;;;;;942487;148;27191;-80
2022/08/21 10:34:26;;;;;;;3.60;2.35;;;38.40;28.80;;;;;;945345;147;27590;-80
2022/08/21 10:37:02;;;;;;;4.50;2.60;;;38.10;29.00;;;;;;944338;150;27270;-80
2022/08/21 10:39:34;;;;;;;3.27;2.30;;;37.90;29.10;;;;;;944478;149;27371;-80
2022/08/21 10:42:06;;;;;;;3.52;2.22;;;37.60;29.00;;;;;;945153;147;27273;-80
2022/08/21 10:44:33;;;;;;;6.67;2.20;;;37.30;29.10;;;;;;946152;149;27332;-80
2022/08/21 10:47:03;;;;;;;3.15;2.45;;;37.00;29.60;;;;;;945793;150;27196;-80
2022/08/21 10:49:53;;;;;;;4.97;2.60;;;36.70;29.70;;;;;;944894;149;27874;-80
2022/08/21 10:52:34;;;;;;;4.30;2.90;;;36.30;29.80;;;;;;944270;146;27199;-80
2022/08/21 10:55:07;;;;;;;3.45;2.33;;;36.00;29.80;;;;;;945216;149;27361;-80
2022/08/21 10:57:34;;;;;;;2.50;2.30;;;35.70;29.90;;;;;;943717;149;27222;-80
2022/08/21 11:00:00;;;;;;;3.58;2.60;;;35.40;30.10;;;;;;944624;150;28365;-80
2022/08/21 11:02:30;;;;;;;4.40;2.17;;;35.10;30.30;;;;;;945524;149;27303;-80
2022/08/21 11:05:07;;;;;;;5.67;2.70;;;34.90;30.80;;;;;;944021;150;27342;-80
2022/08/21 11:07:43;;;;;;;2.58;1.95;;;34.70;31.00;;;;;;945915;149;27258;-79
2022/08/21 11:10:10;;;;;;;4.03;2.72;;;34.50;31.30;;;;;;945890;149;27319;-80
2022/08/21 11:12:39;;;;;;;6.92;2.80;;;34.40;31.60;;;;;;946698;147;27659;-80
2022/08/21 11:15:12;;;;;;;3.33;2.67;;;34.30;31.60;;;;;;945546;147;27348;-80
2022/08/21 11:17:38;;;;;;;3.22;2.47;;;34.20;31.70;;;;;;954784;148;28827;-80
2022/08/21 11:20:11;;;;;;;5.03;2.62;;;34.20;31.80;;;;;;957701;146;27309;-80
2022/08/21 11:22:46;;;;;;;3.80;2.45;;;34.10;31.60;;;;;;953365;148;27255;-80
2022/08/21 11:25:34;;;;;;;3.00;2.22;;;34.00;31.80;;;;;;956339;146;27345;-80
2022/08/21 11:28:16;;;;;;;4.80;2.67;;;33.90;31.60;;;;;;955821;148;27318;-80
2022/08/21 11:30:45;;;;;;;2.52;2.17;;;33.70;31.50;;;;;;938726;148;27446;-79
2022/08/21 11:33:27;;;;;;;3.87;2.35;;;33.50;31.60;;;;;;956847;148;27244;-79
2022/08/21 11:36:04;;;;;;;1.87;1.77;;;33.40;31.80;;;;;;955954;148;27317;-80
2022/08/21 11:38:35;;;;;;;3.27;2.65;;;33.20;31.90;;;;;;956092;148;27403;-80
2022/08/21 11:41:04;;;;;;;4.10;2.58;;;33.00;31.30;;;;;;954451;147;27267;-80
2022/08/21 11:43:46;;;;;;;3.33;2.65;;;32.90;32.30;;;;;;955665;148;27244;-80
2022/08/21 11:46:34;;;;;;;2.65;2.35;;;32.80;32.40;;;;;;954523;148;27253;-79
2022/08/21 11:49:25;;;;;;;2.45;2.20;;;32.60;32.40;;;;;;955791;148;28280;-80
2022/08/21 11:52:03;;;;;;;2.60;1.98;;;32.50;32.60;;;;;;955506;148;27568;-80
2022/08/21 11:54:30;;;;;;;2.45;2.17;;;32.40;32.70;;;;;;955912;148;27372;-80
2022/08/21 11:57:02;;;;;;;4.72;2.70;;;32.30;32.90;;;;;;956444;148;27296;-80
2022/08/21 11:59:41;;;;;;;3.47;2.80;;;32.30;33.00;;;;;;954141;148;27260;-80
2022/08/21 12:02:07;;;;;;;2.50;2.30;;;32.30;33.00;;;;;;957359;148;27213;-80
2022/08/21 12:04:34;;;;;;;3.58;2.30;;;32.20;33.10;;;;;;953018;148;27225;-79
2022/08/21 12:07:13;;;;;;;3.37;2.05;;;32.20;33.10;;;;;;956189;147;27293;-80
2022/08/21 12:09:39;;;;;;;2.95;2.10;;;32.20;33.00;;;;;;957623;148;27362;-80
2022/08/21 12:12:06;;;;;;;3.95;2.58;;;32.10;33.10;;;;;;956702;148;27253;-79
2022/08/21 12:14:41;;;;;;;3.47;2.25;;;32.00;33.00;;;;;;957719;148;27898;-79
2022/08/21 12:17:08;;;;;;;2.62;2.40;;;31.90;33.00;;;;;;955517;148;27253;-79
2022/08/21 12:19:34;;;;;;;2.47;2.25;;;31.80;33.20;;;;;;956360;146;27260;-79
2022/08/21 12:22:08;;;;;;;2.35;2.10;;;31.70;33.20;;;;;;955860;148;27337;-79
2022/08/21 12:24:36;;;;;;;2.83;2.33;;;31.60;33.40;;;;;;957701;148;27346;-79
2022/08/21 12:27:21;;;;;;;2.75;2.35;;;31.50;33.60;;;;;;954712;148;27222;-79
2022/08/21 12:29:50;;;;;;;2.50;1.95;;;31.40;33.40;;;;;;957276;148;27236;-80
2022/08/21 12:32:16;;;;;;;2.47;1.92;;;31.30;33.50;;;;;;957261;148;27369;-80
2022/08/21 12:35:01;;;;;;;2.47;2.12;;;31.30;33.80;;;;;;957303;148;27350;-80
2022/08/21 12:37:30;;;;;;;2.33;1.98;;;31.30;33.90;;;;;;957392;147;27189;-80
2022/08/21 12:39:57;;;;;;;1.90;1.72;;;31.30;34.10;;;;;;957516;146;27269;-80
2022/08/21 12:42:23;;;;;;;2.58;2.25;;;31.40;34.30;;;;;;955465;148;27440;-80
2022/08/21 12:44:50;;;;;;;4.22;2.12;;;31.50;34.40;;;;;;955989;148;27281;-80
2022/08/21 12:47:25;;;;;;;2.60;2.40;;;31.50;34.20;;;;;;955781;148;27361;-80
2022/08/21 12:50:04;;;;;;;2.25;1.92;;;31.70;34.10;;;;;;955776;148;27252;-80
2022/08/21 12:52:33;;;;;;;2.72;2.22;;;31.80;34.20;;;;;;955838;148;27374;-80
2022/08/21 12:55:00;;;;;;;2.27;1.98;;;31.90;34.30;;;;;;955547;148;27297;-80
2022/08/21 12:57:26;;;;;;;3.42;2.10;;;32.10;34.40;;;;;;957811;148;27256;-80